Tie Plant, MS (38960)

2:02 PM CDT on September 29, 2016 (GMT -0500)
Greenwood-Leflore | | Change Station

Elev 154 ft 33.49 °N, 90.08 °W | Updated 9 minutes ago

Clear
Clear
75 °F
Feels Like 75 °F
N
12
Wind Variable Wind from North
Gusts 20 mph

Today
High -- | Low -- °F
--% Chance of Precip.
Yesterday
High -- | Low -- °F
Precip. -- in
Pressure 30.13 in
Visibility 10.0 miles
Clouds Clear
Dew Point 46 °F
Humidity 36%
Rainfall 0.00 in
Snow Depth Not available.
6:52 AM 6:45 PM
Waning Crescent, 1% visible
METAR KGWO 291853Z AUTO 35010G17KT 10SM CLR 24/08 A3013 RMK AO2 SLP202 T02390078
Pressure 30.13 in
Visibility 10.0 miles
Clouds Clear
Dew Point 46 °F
Humidity 36%
Rainfall 0.00 in
Snow Depth Not available.
6:52 AM 6:45 PM
Waning Crescent, 1% visible
METAR KGWO 291853Z AUTO 35010G17KT 10SM CLR 24/08 A3013 RMK AO2 SLP202 T02390078

10-Day Weather Forecast

Almanac

Astronomy

Sep. 29, 2016 Rise Set
Actual Time
Civil Twilight
Nautical Twilight
Astronomical Twilight
Moon
Length of Visible Light
Length of Day
Tomorrow will be .
, % of the Moon is Illuminated

Today's Extremes

State Highs State Lows

Community

WunderPhotos

Upload Photos

1,942,546 photos uploaded!

WunderBlog® & News

Nearby

Air Quality

  Air Quality AQ Index Pollutant
Not available.

Snow Depth

Station Depth Elevation

Earthquake Activity

City Distance Mag. Time & Date
Minimum magnitude displayed is 2.5.

Coastal Water Temperatures

Place Temperature

Stations

Nearby Weather Stations

Station Location Temp. Windchill Dew Point Humidity Wind Precip. Elev Updated Type
                   

Watches & Warnings

There are currently no watches in effect.